Time;durP1;ratioP1;P1;durP2;ratioP2;P2;SDS_P1;SDS_P2;PMS_P1;PMS_P2;Temp;Humidity;BMP_temperature;BMP_pressure;BME280_temperature;BME280_humidity;BME280_pressure;Samples;Min_cycle;Max_cycle;Signal;HPM_P1;HPM_P2
2023/04/02 00:00:11;;;;;;;;;;;22.60;55.50;;;;;;5088194;28;19908;-70
2023/04/02 00:02:58;;;;;;;;;;;22.50;55.60;;;;;;5075185;28;20268;-70
2023/04/02 00:05:32;;;;;;;;;;;22.50;55.70;;;;;;5091599;28;20014;-69
2023/04/02 00:07:59;;;;;;;;;;;22.50;55.80;;;;;;5092128;28;19919;-70
2023/04/02 00:10:28;;;;;;;;;;;22.50;55.80;;;;;;5073642;28;19963;-70
2023/04/02 00:13:05;;;;;;;;;;;22.40;55.70;;;;;;5073894;28;19923;-69
2023/04/02 00:15:32;;;;;;;;;;;22.40;55.80;;;;;;5056498;28;20023;-70
2023/04/02 00:17:58;;;;;;;;;;;22.40;55.90;;;;;;5055060;28;19984;-69
2023/04/02 00:20:26;;;;;;;;;;;22.30;55.90;;;;;;5053559;28;19916;-69
2023/04/02 00:22:52;;;;;;;;;;;22.50;56.10;;;;;;5057997;28;20271;-70
2023/04/02 00:25:18;;;;;;;;;;;22.20;55.80;;;;;;5053229;28;20384;-69
2023/04/02 00:27:44;;;;;;;;;;;22.30;55.90;;;;;;5035567;28;19909;-70
2023/04/02 00:30:13;;;;;;;;;;;22.40;55.80;;;;;;5054618;28;19916;-69
2023/04/02 00:32:39;;;;;;;;;;;22.30;55.80;;;;;;5054570;28;20391;-70
2023/04/02 00:35:16;;;;;;;;;;;22.40;55.80;;;;;;5053607;28;19956;-69
2023/04/02 00:37:43;;;;;;;;;;;22.30;55.70;;;;;;5001900;28;20364;-69
2023/04/02 00:40:09;;;;;;;;;;;22.40;55.70;;;;;;5053963;28;20331;-69
2023/04/02 00:42:38;;;;;;;;;;;22.30;55.60;;;;;;5054826;28;19918;-69
2023/04/02 00:45:06;;;;;;;;;;;22.40;55.60;;;;;;5035321;28;20365;-70
2023/04/02 00:47:36;;;;;;;;;;;22.40;55.60;;;;;;5051601;28;19913;-70
2023/04/02 00:50:16;;;;;;;;;;;22.40;55.60;;;;;;5048546;28;19939;-69
2023/04/02 00:52:44;;;;;;;;;;;22.30;55.50;;;;;;5043305;28;19913;-70
2023/04/02 00:55:16;;;;;;;;;;;22.40;55.50;;;;;;5035564;28;19916;-70
2023/04/02 00:57:43;;;;;;;;;;;22.40;55.60;;;;;;5051946;28;20368;-69
2023/04/02 01:00:13;;;;;;;;;;;22.20;55.40;;;;;;5042328;28;20049;-70
2023/04/02 01:02:39;;;;;;;;;;;22.30;55.70;;;;;;5063407;28;19916;-70
2023/04/02 01:05:14;;;;;;;;;;;22.30;55.70;;;;;;5037131;28;19908;-69
2023/04/02 01:07:43;;;;;;;;;;;22.10;55.60;;;;;;5073147;28;19912;-70
2023/04/02 01:10:27;;;;;;;;;;;22.20;55.70;;;;;;5072738;28;19916;-69
2023/04/02 01:12:59;;;;;;;;;;;22.10;55.70;;;;;;5041388;28;19916;-70
2023/04/02 01:15:32;;;;;;;;;;;22.10;55.80;;;;;;5060342;28;19916;-69
2023/04/02 01:18:16;;;;;;;;;;;22.10;55.90;;;;;;5034141;28;19912;-69
2023/04/02 01:20:45;;;;;;;;;;;22.10;56.00;;;;;;5030016;28;20021;-69
2023/04/02 01:23:15;;;;;;;;;;;22.10;56.00;;;;;;5027959;28;20015;-69
2023/04/02 01:25:44;;;;;;;;;;;22.10;56.00;;;;;;5033333;28;19924;-69
2023/04/02 01:28:36;;;;;;;;;;;22.20;56.00;;;;;;5031186;28;19921;-69
2023/04/02 01:31:02;;;;;;;;;;;22.00;55.80;;;;;;5010272;28;19925;-70
2023/04/02 01:33:31;;;;;;;;;;;22.10;55.80;;;;;;5014865;28;19916;-69
2023/04/02 01:36:07;;;;;;;;;;;22.00;55.70;;;;;;5029242;28;19913;-70
2023/04/02 01:38:38;;;;;;;;;;;22.10;55.70;;;;;;5029739;28;19913;-69
2023/04/02 01:41:09;;;;;;;;;;;22.20;55.70;;;;;;5028932;28;20400;-70
2023/04/02 01:43:35;;;;;;;;;;;22.30;55.70;;;;;;5028607;28;19908;-70
2023/04/02 01:46:22;;;;;;;;;;;22.20;55.60;;;;;;5040920;28;19928;-70
2023/04/02 01:48:48;;;;;;;;;;;22.20;55.60;;;;;;5042899;28;19923;-69
2023/04/02 01:51:31;;;;;;;;;;;22.20;55.50;;;;;;5008714;28;19913;-70
2023/04/02 01:54:00;;;;;;;;;;;22.20;55.50;;;;;;5000422;28;20389;-69
2023/04/02 01:56:27;;;;;;;;;;;22.10;55.40;;;;;;5009955;28;20349;-70
2023/04/02 01:58:54;;;;;;;;;;;22.20;55.60;;;;;;5008915;28;19912;-70
2023/04/02 02:01:23;;;;;;;;;;;22.20;55.50;;;;;;5016661;28;19909;-70
2023/04/02 02:03:50;;;;;;;;;;;22.20;55.40;;;;;;5011870;28;19909;-70
2023/04/02 02:06:17;;;;;;;;;;;22.20;55.30;;;;;;5028327;28;19909;-70
2023/04/02 02:08:46;;;;;;;;;;;22.20;55.30;;;;;;5009670;28;20269;-70
2023/04/02 02:11:17;;;;;;;;;;;22.20;55.30;;;;;;4993390;28;20381;-69
2023/04/02 02:13:51;;;;;;;;;;;22.20;55.30;;;;;;5026247;28;20435;-70
2023/04/02 02:16:17;;;;;;;;;;;22.10;55.30;;;;;;5068511;28;19908;-70
2023/04/02 02:18:45;;;;;;;;;;;22.10;55.30;;;;;;5052926;28;19934;-70
2023/04/02 02:21:15;;;;;;;;;;;22.10;55.30;;;;;;5050590;28;19909;-70
2023/04/02 02:23:41;;;;;;;;;;;22.20;55.40;;;;;;5088932;28;19945;-70
2023/04/02 02:26:06;;;;;;;;;;;22.10;55.50;;;;;;5090487;28;20017;-69
2023/04/02 02:28:34;;;;;;;;;;;22.10;55.40;;;;;;5087093;28;19915;-70
2023/04/02 02:31:11;;;;;;;;;;;22.00;55.30;;;;;;5067961;28;20256;-70
2023/04/02 02:33:45;;;;;;;;;;;22.10;55.40;;;;;;5082714;28;20332;-70
2023/04/02 02:36:32;;;;;;;;;;;22.10;55.50;;;;;;5073650;28;19961;-70
2023/04/02 02:39:03;;;;;;;;;;;22.20;55.60;;;;;;5070042;28;20076;-69
2023/04/02 02:41:56;;;;;;;;;;;22.00;55.40;;;;;;5071655;28;19908;-70
2023/04/02 02:44:25;;;;;;;;;;;22.20;55.40;;;;;;5071920;28;20053;-70
2023/04/02 02:46:58;;;;;;;;;;;22.10;55.40;;;;;;5079445;28;20006;-70
2023/04/02 02:49:27;;;;;;;;;;;22.20;55.20;;;;;;5071135;28;19916;-69
2023/04/02 02:52:14;;;;;;;;;;;22.10;55.10;;;;;;5069968;28;20395;-70
2023/04/02 02:55:15;;;;;;;;;;;22.10;55.20;;;;;;5047204;28;19962;-69
2023/04/02 02:57:54;;;;;;;;;;;22.10;55.40;;;;;;5042460;28;19928;-69
2023/04/02 03:00:23;;;;;;;;;;;22.10;55.40;;;;;;5019322;28;19908;-70
2023/04/02 03:02:50;;;;;;;;;;;22.10;55.40;;;;;;5012504;28;19908;-70
2023/04/02 03:05:20;;;;;;;;;;;22.00;55.30;;;;;;5029544;28;19909;-70
2023/04/02 03:07:50;;;;;;;;;;;22.00;55.30;;;;;;5023959;28;19995;-70
2023/04/02 03:10:19;;;;;;;;;;;22.00;55.40;;;;;;5044072;28;19925;-70
2023/04/02 03:13:11;;;;;;;;;;;22.10;55.50;;;;;;5025105;28;19948;-69
2023/04/02 03:15:41;;;;;;;;;;;22.00;55.50;;;;;;5022452;28;19917;-70
2023/04/02 03:18:15;;;;;;;;;;;21.90;55.50;;;;;;5054460;28;19919;-70
2023/04/02 03:20:50;;;;;;;;;;;21.90;55.60;;;;;;5072030;28;19940;-69
2023/04/02 03:23:20;;;;;;;;;;;21.80;55.40;;;;;;5055274;28;19912;-69
2023/04/02 03:25:51;;;;;;;;;;;21.90;55.80;;;;;;5054604;28;19909;-69
2023/04/02 03:28:22;;;;;;;;;;;21.80;55.60;;;;;;5013802;28;19962;-69
2023/04/02 03:30:54;;;;;;;;;;;21.80;55.60;;;;;;5032697;28;19916;-69
2023/04/02 03:33:20;;;;;;;;;;;21.90;55.80;;;;;;5032312;28;19908;-69
2023/04/02 03:35:56;;;;;;;;;;;22.00;55.70;;;;;;5021083;28;19928;-69
2023/04/02 03:38:25;;;;;;;;;;;21.80;55.50;;;;;;5035555;28;20023;-69
2023/04/02 03:41:02;;;;;;;;;;;21.90;55.60;;;;;;5048034;28;19963;-70
2023/04/02 03:43:32;;;;;;;;;;;21.90;55.60;;;;;;5046790;28;19995;-69
2023/04/02 03:46:19;;;;;;;;;;;21.80;55.40;;;;;;5042056;28;19909;-69
2023/04/02 03:48:48;;;;;;;;;;;21.90;55.50;;;;;;5023901;28;19963;-69
2023/04/02 03:51:20;;;;;;;;;;;21.90;55.50;;;;;;5044631;28;20067;-70
2023/04/02 03:53:47;;;;;;;;;;;21.90;55.40;;;;;;5050264;28;19959;-70
2023/04/02 03:56:30;;;;;;;;;;;22.00;55.40;;;;;;5034528;28;19912;-70
2023/04/02 03:59:10;;;;;;;;;;;21.90;55.30;;;;;;5074758;28;19930;-69
2023/04/02 04:01:41;;;;;;;;;;;21.90;55.30;;;;;;5072249;28;19970;-69
2023/04/02 04:04:13;;;;;;;;;;;21.90;55.40;;;;;;5070130;28;19908;-69
2023/04/02 04:06:44;;;;;;;;;;;21.80;55.30;;;;;;5054802;28;19909;-69
2023/04/02 04:09:15;;;;;;;;;;;21.80;55.30;;;;;;5071487;28;19920;-69
2023/04/02 04:11:47;;;;;;;;;;;21.80;55.40;;;;;;5070510;28;20061;-70
2023/04/02 04:14:18;;;;;;;;;;;21.90;55.50;;;;;;5051655;28;19920;-69
2023/04/02 04:16:46;;;;;;;;;;;21.90;55.60;;;;;;5053958;28;20328;-69
2023/04/02 04:19:16;;;;;;;;;;;21.80;55.50;;;;;;5053441;28;19942;-70
2023/04/02 04:21:45;;;;;;;;;;;21.80;55.50;;;;;;5031297;28;19916;-69
2023/04/02 04:24:23;;;;;;;;;;;21.60;55.50;;;;;;5013670;28;19909;-70
2023/04/02 04:27:08;;;;;;;;;;;21.70;55.60;;;;;;5030359;28;19967;-69
2023/04/02 04:29:56;;;;;;;;;;;21.70;55.70;;;;;;5029542;28;19912;-69
2023/04/02 04:32:31;;;;;;;;;;;21.70;55.70;;;;;;5014769;28;19917;-69
2023/04/02 04:35:20;;;;;;;;;;;21.60;55.60;;;;;;5021673;28;19940;-69
2023/04/02 04:37:48;;;;;;;;;;;21.60;55.70;;;;;;4974590;28;20443;-69
2023/04/02 04:40:19;;;;;;;;;;;21.60;55.60;;;;;;4991084;28;19909;-69
2023/04/02 04:42:47;;;;;;;;;;;21.60;55.70;;;;;;4973656;28;19918;-69
2023/04/02 04:45:13;;;;;;;;;;;21.70;55.80;;;;;;4987464;28;20425;-71
2023/04/02 04:47:49;;;;;;;;;;;21.50;55.80;;;;;;4991394;28;20441;-69
2023/04/02 04:50:20;;;;;;;;;;;21.50;55.90;;;;;;4971116;28;19918;-69
2023/04/02 04:52:46;;;;;;;;;;;21.50;55.90;;;;;;4970119;28;19913;-69
2023/04/02 04:55:24;;;;;;;;;;;21.50;55.90;;;;;;5015492;28;19912;-69
2023/04/02 04:57:54;;;;;;;;;;;21.60;55.80;;;;;;5017102;28;19915;-69
2023/04/02 05:00:29;;;;;;;;;;;21.60;55.80;;;;;;5014051;28;20336;-69
2023/04/02 05:03:02;;;;;;;;;;;21.60;55.60;;;;;;5014371;28;19963;-69
2023/04/02 05:05:30;;;;;;;;;;;21.70;55.60;;;;;;5044481;28;19909;-70
2023/04/02 05:08:03;;;;;;;;;;;21.70;55.50;;;;;;5013748;28;19952;-69
2023/04/02 05:10:29;;;;;;;;;;;21.70;55.40;;;;;;5013808;28;19917;-69
2023/04/02 05:12:58;;;;;;;;;;;21.80;55.40;;;;;;5048956;28;20011;-69
2023/04/02 05:15:43;;;;;;;;;;;21.70;55.30;;;;;;5074460;28;20359;-70
2023/04/02 05:18:13;;;;;;;;;;;21.70;55.30;;;;;;5093044;28;19962;-69
2023/04/02 05:20:44;;;;;;;;;;;21.90;55.20;;;;;;5089068;28;19916;-70
2023/04/02 05:23:13;;;;;;;;;;;21.80;55.10;;;;;;5072809;28;19908;-70
2023/04/02 05:26:12;;;;;;;;;;;21.90;55.20;;;;;;5081356;28;19908;-70
2023/04/02 05:28:38;;;;;;;;;;;22.00;55.10;;;;;;5040164;28;19959;-71
2023/04/02 05:31:07;;;;;;;;;;;21.90;55.10;;;;;;5024845;28;19932;-72
2023/04/02 05:33:34;;;;;;;;;;;21.90;55.20;;;;;;5022575;28;20280;-71
2023/04/02 05:36:06;;;;;;;;;;;22.10;55.50;;;;;;5049163;28;19912;-72
2023/04/02 05:38:42;;;;;;;;;;;22.00;55.60;;;;;;5044958;28;19948;-72
2023/04/02 05:41:17;;;;;;;;;;;22.00;55.60;;;;;;5028537;28;19913;-71
2023/04/02 05:43:46;;;;;;;;;;;22.10;56.00;;;;;;5033383;28;20469;-71
2023/04/02 05:46:26;;;;;;;;;;;22.00;55.50;;;;;;5029832;28;21034;-71
2023/04/02 05:48:55;;;;;;;;;;;22.20;55.80;;;;;;5031230;28;20320;-71
2023/04/02 05:51:24;;;;;;;;;;;22.00;56.20;;;;;;5032956;28;19912;-70
2023/04/02 05:53:59;;;;;;;;;;;22.20;56.40;;;;;;5047220;28;20269;-71
2023/04/02 05:56:31;;;;;;;;;;;22.20;56.40;;;;;;5030546;28;19913;-71
2023/04/02 05:59:06;;;;;;;;;;;22.10;56.50;;;;;;5034987;28;19909;-71
2023/04/02 06:01:44;;;;;;;;;;;22.20;56.90;;;;;;5040135;28;20005;-71
2023/04/02 06:04:14;;;;;;;;;;;22.40;57.00;;;;;;5046889;28;19908;-70
2023/04/02 06:06:41;;;;;;;;;;;22.20;57.20;;;;;;5081736;28;20301;-70
2023/04/02 06:09:10;;;;;;;;;;;22.30;57.50;;;;;;5053260;28;19917;-70
2023/04/02 06:11:41;;;;;;;;;;;22.30;60.70;;;;;;5077079;28;19916;-70
2023/04/02 06:14:10;;;;;;;;;;;22.70;58.40;;;;;;5075536;28;19919;-71
2023/04/02 06:16:37;;;;;;;;;;;22.90;51.10;;;;;;5088980;28;20105;-70
2023/04/02 06:19:09;;;;;;;;;;;22.70;51.30;;;;;;5088815;28;19915;-69
2023/04/02 06:21:42;;;;;;;;;;;22.80;51.10;;;;;;5071932;28;19912;-69
2023/04/02 06:24:10;;;;;;;;;;;22.80;50.60;;;;;;5054616;28;20272;-68
2023/04/02 06:26:38;;;;;;;;;;;22.90;49.50;;;;;;5073963;28;19908;-70
2023/04/02 06:29:24;;;;;;;;;;;22.90;49.30;;;;;;5084481;28;19912;-70
2023/04/02 06:31:55;;;;;;;;;;;22.90;48.20;;;;;;5060714;28;19931;-71
2023/04/02 06:34:23;;;;;;;;;;;22.80;49.30;;;;;;5080159;28;19912;-70
2023/04/02 06:37:02;;;;;;;;;;;22.90;59.20;;;;;;5072226;28;19957;-71
2023/04/02 06:39:29;;;;;;;;;;;22.90;59.10;;;;;;5079274;28;19953;-70
2023/04/02 06:42:01;;;;;;;;;;;23.00;59.00;;;;;;5030394;28;19913;-75
2023/04/02 06:44:59;;;;;;;;;;;23.00;59.10;;;;;;5078994;28;19915;-74
2023/04/02 06:47:47;;;;;;;;;;;22.90;58.60;;;;;;5077176;28;19912;-75
2023/04/02 06:50:53;;;;;;;;;;;23.00;58.20;;;;;;5056728;28;19963;-74
2023/04/02 06:53:22;;;;;;;;;;;22.90;57.70;;;;;;4990936;28;19920;-74
2023/04/02 06:55:55;;;;;;;;;;;23.00;54.80;;;;;;4980881;28;19984;-77
2023/04/02 06:58:25;;;;;;;;;;;23.00;57.90;;;;;;4979084;28;19920;-77
2023/04/02 07:00:52;;;;;;;;;;;23.00;58.80;;;;;;4987505;28;19957;-76
2023/04/02 07:03:31;;;;;;;;;;;23.00;59.20;;;;;;4990274;28;19913;-76
2023/04/02 07:06:02;;;;;;;;;;;23.00;58.90;;;;;;4988081;28;19910;-78
2023/04/02 07:08:29;;;;;;;;;;;23.00;62.20;;;;;;4980483;28;19948;-76
2023/04/02 07:10:56;;;;;;;;;;;23.30;59.00;;;;;;4986726;28;19960;-76
2023/04/02 07:13:23;;;;;;;;;;;23.30;58.10;;;;;;4989057;28;20570;-72
2023/04/02 07:15:51;;;;;;;;;;;23.40;57.60;;;;;;4990029;28;19909;-80
2023/04/02 07:18:26;;;;;;;;;;;23.40;57.30;;;;;;4990347;28;20370;-75
2023/04/02 07:20:52;;;;;;;;;;;23.40;56.40;;;;;;4977458;28;19920;-77
2023/04/02 07:23:19;;;;;;;;;;;23.40;55.80;;;;;;4990793;28;19918;-78
2023/04/02 07:25:50;;;;;;;;;;;23.30;55.70;;;;;;4990319;28;19980;-80
2023/04/02 07:28:16;;;;;;;;;;;23.40;54.80;;;;;;5008549;28;19939;-76
2023/04/02 07:30:42;;;;;;;;;;;23.30;53.80;;;;;;5072203;28;19981;-76
2023/04/02 07:33:11;;;;;;;;;;;23.40;53.10;;;;;;5078538;28;19966;-74
2023/04/02 07:35:37;;;;;;;;;;;23.40;51.40;;;;;;5071808;28;19908;-75
2023/04/02 07:38:03;;;;;;;;;;;23.40;52.50;;;;;;5071359;28;20113;-78
2023/04/02 07:40:29;;;;;;;;;;;23.30;50.30;;;;;;5071572;28;20003;-76
2023/04/02 07:42:55;;;;;;;;;;;23.20;52.70;;;;;;5071552;28;19951;-75
2023/04/02 07:45:21;;;;;;;;;;;23.20;56.90;;;;;;5070907;28;19930;-76
2023/04/02 07:47:47;;;;;;;;;;;23.20;57.30;;;;;;5071004;28;19914;-76
2023/04/02 07:50:13;;;;;;;;;;;23.30;58.40;;;;;;5069125;28;20011;-75
2023/04/02 07:52:40;;;;;;;;;;;23.20;59.30;;;;;;5082810;28;19928;-74
2023/04/02 07:55:08;;;;;;;;;;;23.20;59.90;;;;;;5075604;28;19914;-74
2023/04/02 07:57:37;;;;;;;;;;;23.30;58.60;;;;;;5088995;28;19912;-74
2023/04/02 08:00:06;;;;;;;;;;;23.30;61.20;;;;;;5086493;28;19915;-75
2023/04/02 08:02:38;;;;;;;;;;;23.50;59.10;;;;;;5088793;28;19911;-74
2023/04/02 08:05:04;;;;;;;;;;;23.40;58.10;;;;;;5083029;28;19912;-78
2023/04/02 08:07:30;;;;;;;;;;;23.40;57.20;;;;;;5092290;28;19973;-79
2023/04/02 08:09:55;;;;;;;;;;;23.30;55.90;;;;;;5087928;28;19924;-74
2023/04/02 08:12:21;;;;;;;;;;;23.40;55.00;;;;;;5071446;28;19924;-74
2023/04/02 08:14:47;;;;;;;;;;;23.50;54.40;;;;;;5057096;28;19921;-74
2023/04/02 08:17:15;;;;;;;;;;;23.40;53.80;;;;;;5040552;28;19923;-76
2023/04/02 08:19:41;;;;;;;;;;;23.50;53.40;;;;;;5041461;28;19958;-75
2023/04/02 08:22:06;;;;;;;;;;;23.30;49.70;;;;;;5064402;28;19908;-79
2023/04/02 08:24:32;;;;;;;;;;;23.40;49.20;;;;;;5046399;28;19908;-74
2023/04/02 08:26:58;;;;;;;;;;;23.40;48.00;;;;;;5060574;28;19989;-74
2023/04/02 08:29:24;;;;;;;;;;;23.30;47.40;;;;;;5015041;28;19951;-74
2023/04/02 08:31:50;;;;;;;;;;;23.40;46.70;;;;;;5062446;28;19916;-76
2023/04/02 08:34:16;;;;;;;;;;;23.40;46.60;;;;;;5046702;28;19959;-74
2023/04/02 08:36:43;;;;;;;;;;;23.40;51.90;;;;;;5049629;28;19913;-76
2023/04/02 08:39:10;;;;;;;;;;;23.40;52.40;;;;;;5050224;28;19940;-75
2023/04/02 08:41:39;;;;;;;;;;;23.40;53.20;;;;;;5053633;28;21715;-72
2023/04/02 08:44:14;;;;;;;;;;;23.50;53.40;;;;;;5055051;28;20399;-75
2023/04/02 08:46:52;;;;;;;;;;;23.40;53.30;;;;;;5057627;28;19913;-75
2023/04/02 08:49:29;;;;;;;;;;;23.40;53.70;;;;;;5050766;28;20013;-75
2023/04/02 08:51:56;;;;;;;;;;;23.40;54.20;;;;;;5049539;28;19947;-76
2023/04/02 08:54:29;;;;;;;;;;;23.20;54.70;;;;;;5049125;28;20006;-75
2023/04/02 08:57:01;;;;;;;;;;;23.20;54.80;;;;;;5067165;28;19943;-76
2023/04/02 08:59:30;;;;;;;;;;;23.30;55.00;;;;;;5061586;28;19943;-76
2023/04/02 09:02:03;;;;;;;;;;;23.20;55.10;;;;;;5047330;28;19912;-75
2023/04/02 09:04:30;;;;;;;;;;;23.00;53.90;;;;;;5048347;28;19919;-75
2023/04/02 09:06:58;;;;;;;;;;;23.10;55.20;;;;;;5051003;28;20003;-75
2023/04/02 09:09:24;;;;;;;;;;;23.10;54.70;;;;;;5047737;28;19962;-71
2023/04/02 09:11:54;;;;;;;;;;;23.00;55.50;;;;;;5050405;28;19917;-79
2023/04/02 09:14:27;;;;;;;;;;;22.90;55.50;;;;;;5050346;28;19928;-74
2023/04/02 09:16:54;;;;;;;;;;;23.00;55.20;;;;;;5048982;28;19913;-73
2023/04/02 09:19:22;;;;;;;;;;;23.00;55.30;;;;;;5058670;28;20438;-72
2023/04/02 09:21:58;;;;;;;;;;;23.00;55.50;;;;;;5038989;28;20313;-72
2023/04/02 09:24:24;;;;;;;;;;;22.90;55.60;;;;;;5007795;28;19944;-72
2023/04/02 09:26:50;;;;;;;;;;;23.00;55.60;;;;;;4975651;28;20007;-72
2023/04/02 09:29:24;;;;;;;;;;;23.00;55.60;;;;;;5009454;28;19917;-72
2023/04/02 09:31:58;;;;;;;;;;;22.90;55.50;;;;;;5012114;28;19976;-72
2023/04/02 09:34:30;;;;;;;;;;;22.80;55.30;;;;;;5014448;28;19913;-73
2023/04/02 09:37:06;;;;;;;;;;;23.00;55.40;;;;;;5012093;28;20318;-74
2023/04/02 09:39:32;;;;;;;;;;;23.00;55.40;;;;;;5002160;28;20376;-73
2023/04/02 09:41:57;;;;;;;;;;;22.90;55.50;;;;;;5024613;28;19959;-72
2023/04/02 09:44:24;;;;;;;;;;;23.00;54.80;;;;;;5023614;28;20300;-73
2023/04/02 09:47:13;;;;;;;;;;;22.90;55.50;;;;;;5016646;28;20003;-72
2023/04/02 09:49:39;;;;;;;;;;;23.00;55.40;;;;;;5008475;28;20684;-73
2023/04/02 09:52:08;;;;;;;;;;;23.00;55.30;;;;;;4992461;28;19913;-72
2023/04/02 09:54:40;;;;;;;;;;;23.00;55.90;;;;;;5008031;28;19913;-76
2023/04/02 09:57:17;;;;;;;;;;;22.90;56.20;;;;;;5011478;28;20017;-73
2023/04/02 09:59:43;;;;;;;;;;;23.10;56.10;;;;;;4993415;28;19959;-73
2023/04/02 10:02:23;;;;;;;;;;;23.00;56.70;;;;;;5035952;28;20006;-75
2023/04/02 10:04:49;;;;;;;;;;;23.00;54.10;;;;;;5051572;28;19912;-73
2023/04/02 10:07:29;;;;;;;;;;;23.20;52.80;;;;;;5034190;28;19909;-74
2023/04/02 10:10:00;;;;;;;;;;;23.40;52.20;;;;;;5051758;28;19920;-74
2023/04/02 10:12:26;;;;;;;;;;;23.50;50.20;;;;;;5050944;28;19923;-73
2023/04/02 10:14:53;;;;;;;;;;;23.40;49.80;;;;;;5056915;28;19947;-72
2023/04/02 10:17:22;;;;;;;;;;;23.40;51.10;;;;;;5039466;28;19916;-71
2023/04/02 10:19:50;;;;;;;;;;;23.40;51.60;;;;;;5051067;28;19908;-71
2023/04/02 10:22:18;;;;;;;;;;;23.40;52.00;;;;;;5067997;28;19930;-71
2023/04/02 10:24:44;;;;;;;;;;;23.40;50.50;;;;;;5060202;28;19916;-71
2023/04/02 10:27:17;;;;;;;;;;;23.50;51.60;;;;;;5053993;28;20301;-70
2023/04/02 10:30:12;;;;;;;;;;;23.50;50.60;;;;;;5057009;28;19917;-71
2023/04/02 10:32:40;;;;;;;;;;;23.60;50.40;;;;;;4965326;28;19964;-71
2023/04/02 10:35:07;;;;;;;;;;;23.50;49.70;;;;;;4952190;28;20009;-71
2023/04/02 10:37:42;;;;;;;;;;;23.50;48.50;;;;;;4950481;28;19910;-72
2023/04/02 10:40:11;;;;;;;;;;;23.50;49.50;;;;;;4959082;28;19910;-72
2023/04/02 10:42:46;;;;;;;;;;;23.60;49.20;;;;;;4957449;28;19921;-71
2023/04/02 10:45:30;;;;;;;;;;;23.70;50.30;;;;;;4970042;28;20305;-72
2023/04/02 10:48:04;;;;;;;;;;;23.80;49.70;;;;;;4954111;28;19921;-72
2023/04/02 10:50:31;;;;;;;;;;;23.70;49.70;;;;;;4957382;28;19918;-75
2023/04/02 10:52:59;;;;;;;;;;;23.80;48.90;;;;;;4950893;29;20474;-75
2023/04/02 10:55:30;;;;;;;;;;;23.90;60.40;;;;;;4961810;28;19910;-73
2023/04/02 10:57:59;;;;;;;;;;;23.80;65.80;;;;;;4967309;28;19965;-72
2023/04/02 11:00:29;;;;;;;;;;;23.90;54.40;;;;;;4965192;28;19992;-73
2023/04/02 11:02:55;;;;;;;;;;;24.10;49.60;;;;;;4938076;29;20378;-75
2023/04/02 11:05:27;;;;;;;;;;;24.10;47.00;;;;;;4951225;28;19984;-75
2023/04/02 11:08:13;;;;;;;;;;;24.10;49.30;;;;;;4942867;28;19914;-74
2023/04/02 11:10:43;;;;;;;;;;;24.10;48.90;;;;;;5033271;28;19920;-77
2023/04/02 11:13:17;;;;;;;;;;;24.20;48.20;;;;;;5044008;28;19962;-77
2023/04/02 11:15:43;;;;;;;;;;;24.20;54.60;;;;;;5065573;28;20371;-75
2023/04/02 11:18:22;;;;;;;;;;;24.10;56.80;;;;;;5050789;28;19908;-73
2023/04/02 11:21:04;;;;;;;;;;;24.10;56.30;;;;;;5034988;28;19915;-76
2023/04/02 11:23:32;;;;;;;;;;;24.10;55.40;;;;;;5049055;28;19909;-74
2023/04/02 11:26:16;;;;;;;;;;;24.00;57.30;;;;;;5050501;28;20348;-73
2023/04/02 11:28:42;;;;;;;;;;;24.00;57.50;;;;;;5050809;28;19913;-75
2023/04/02 11:31:18;;;;;;;;;;;24.10;58.20;;;;;;5057801;28;19961;-75
2023/04/02 11:33:44;;;;;;;;;;;24.00;57.60;;;;;;5055498;28;19920;-75
2023/04/02 11:36:28;;;;;;;;;;;24.00;57.80;;;;;;5061466;28;19915;-75
2023/04/02 11:38:54;;;;;;;;;;;23.90;57.50;;;;;;5058606;28;19908;-75
2023/04/02 11:41:39;;;;;;;;;;;23.90;58.30;;;;;;5059173;28;19916;-74
2023/04/02 11:44:20;;;;;;;;;;;23.90;58.20;;;;;;5058271;28;19912;-73
2023/04/02 11:46:46;;;;;;;;;;;24.00;57.90;;;;;;5059087;28;19916;-73
2023/04/02 11:49:45;;;;;;;;;;;23.90;58.10;;;;;;5061889;28;19923;-78
2023/04/02 11:52:21;;;;;;;;;;;24.00;57.90;;;;;;5002503;28;20007;-72
2023/04/02 11:55:21;;;;;;;;;;;24.10;58.20;;;;;;5005241;28;19913;-73
2023/04/02 11:57:47;;;;;;;;;;;24.00;58.10;;;;;;4978091;28;19910;-72
2023/04/02 12:00:19;;;;;;;;;;;24.00;58.20;;;;;;4980600;28;19964;-73
2023/04/02 12:03:05;;;;;;;;;;;24.00;58.30;;;;;;4964675;28;19934;-73
2023/04/02 12:05:36;;;;;;;;;;;24.00;57.90;;;;;;4922263;29;19968;-73
2023/04/02 12:08:06;;;;;;;;;;;23.90;58.10;;;;;;4905962;29;20049;-76
2023/04/02 12:10:50;;;;;;;;;;;24.10;57.90;;;;;;4925402;29;20407;-74
2023/04/02 12:13:17;;;;;;;;;;;24.00;57.70;;;;;;4921657;29;19996;-73
2023/04/02 12:15:44;;;;;;;;;;;24.00;58.20;;;;;;4920511;29;19911;-72
2023/04/02 12:18:18;;;;;;;;;;;24.10;58.50;;;;;;4915388;29;20006;-74
2023/04/02 12:20:46;;;;;;;;;;;24.10;58.00;;;;;;4921697;29;19914;-73
2023/04/02 12:23:22;;;;;;;;;;;24.10;58.20;;;;;;4936939;29;19941;-75
2023/04/02 12:25:57;;;;;;;;;;;23.80;57.60;;;;;;4906065;29;19918;-75
2023/04/02 12:28:23;;;;;;;;;;;23.90;57.80;;;;;;4910403;29;20289;-75
2023/04/02 12:30:50;;;;;;;;;;;24.00;57.60;;;;;;4909145;29;19926;-75
2023/04/02 12:33:19;;;;;;;;;;;23.90;57.50;;;;;;4936848;28;19945;-74
2023/04/02 12:35:46;;;;;;;;;;;24.10;57.50;;;;;;4970510;28;20031;-74
2023/04/02 12:38:22;;;;;;;;;;;24.00;57.30;;;;;;4983453;28;19910;-75
2023/04/02 12:40:56;;;;;;;;;;;24.00;57.00;;;;;;4972430;28;19932;-74
2023/04/02 12:43:22;;;;;;;;;;;24.00;57.30;;;;;;5031078;28;19995;-74
2023/04/02 12:45:53;;;;;;;;;;;24.00;57.30;;;;;;5052727;28;20364;-75
2023/04/02 12:48:19;;;;;;;;;;;23.80;57.20;;;;;;5056571;28;19957;-74
2023/04/02 12:50:46;;;;;;;;;;;23.90;57.20;;;;;;5070031;28;19916;-74
2023/04/02 12:53:32;;;;;;;;;;;23.80;57.10;;;;;;5058434;28;19917;-75
2023/04/02 12:55:57;;;;;;;;;;;24.00;57.20;;;;;;5070582;28;20292;-74
2023/04/02 12:58:23;;;;;;;;;;;24.00;57.20;;;;;;5021123;28;20011;-74
2023/04/02 13:00:49;;;;;;;;;;;23.90;57.20;;;;;;5055884;28;19919;-74
2023/04/02 13:03:20;;;;;;;;;;;23.80;57.20;;;;;;5061644;28;19909;-75
2023/04/02 13:05:49;;;;;;;;;;;23.90;57.20;;;;;;5058822;28;20303;-74
2023/04/02 13:08:21;;;;;;;;;;;23.80;56.30;;;;;;5055704;28;19916;-74
2023/04/02 13:10:51;;;;;;;;;;;23.80;55.20;;;;;;5064770;28;19916;-74
2023/04/02 13:13:20;;;;;;;;;;;23.90;56.50;;;;;;5031660;28;19912;-74
2023/04/02 13:15:58;;;;;;;;;;;23.70;56.20;;;;;;5053602;28;19912;-74
2023/04/02 13:18:24;;;;;;;;;;;23.70;57.50;;;;;;5059491;28;19915;-75
2023/04/02 13:20:55;;;;;;;;;;;23.70;57.20;;;;;;5060775;28;20330;-74
2023/04/02 13:23:27;;;;;;;;;;;23.70;57.60;;;;;;5062940;28;19920;-74
2023/04/02 13:25:54;;;;;;;;;;;23.70;57.10;;;;;;5018030;28;19915;-75
2023/04/02 13:28:20;;;;;;;;;;;23.60;56.90;;;;;;5053464;28;19996;-74
2023/04/02 13:30:46;;;;;;;;;;;23.50;58.00;;;;;;5050059;28;19999;-75
2023/04/02 13:33:13;;;;;;;;;;;23.50;58.10;;;;;;5051431;28;19921;-74
2023/04/02 13:35:39;;;;;;;;;;;23.60;57.90;;;;;;5051592;28;19936;-74
2023/04/02 13:38:05;;;;;;;;;;;23.60;57.60;;;;;;5052202;28;19935;-74
2023/04/02 13:40:32;;;;;;;;;;;23.70;57.80;;;;;;5052805;28;19951;-74
2023/04/02 13:42:58;;;;;;;;;;;23.70;57.80;;;;;;5055363;28;19909;-74
2023/04/02 13:45:28;;;;;;;;;;;23.70;57.60;;;;;;5056081;28;19967;-74
2023/04/02 13:47:59;;;;;;;;;;;23.60;57.60;;;;;;5054871;28;20054;-75
2023/04/02 13:50:26;;;;;;;;;;;23.70;57.00;;;;;;5033576;28;19913;-74
2023/04/02 13:52:52;;;;;;;;;;;23.60;57.50;;;;;;5051851;28;19962;-74
2023/04/02 13:55:20;;;;;;;;;;;23.50;57.40;;;;;;5035665;28;19942;-74
2023/04/02 13:57:47;;;;;;;;;;;23.50;57.40;;;;;;5017407;28;19994;-74
2023/04/02 14:00:13;;;;;;;;;;;23.50;57.30;;;;;;5051585;28;19912;-74
2023/04/02 14:02:45;;;;;;;;;;;23.50;57.30;;;;;;5035208;28;19909;-75
2023/04/02 14:05:49;;;;;;;;;;;23.50;57.40;;;;;;5051331;28;19916;-75
2023/04/02 14:08:31;;;;;;;;;;;23.50;57.30;;;;;;4979651;28;21431;-75
2023/04/02 14:11:16;;;;;;;;;;;23.50;57.30;;;;;;4970001;28;19961;-75
2023/04/02 14:13:56;;;;;;;;;;;23.50;57.30;;;;;;4986895;28;19929;-72
2023/04/02 14:16:41;;;;;;;;;;;23.40;57.20;;;;;;5023968;28;19916;-72
2023/04/02 14:19:09;;;;;;;;;;;23.30;58.00;;;;;;5023953;28;20367;-72
2023/04/02 14:21:35;;;;;;;;;;;23.50;55.10;;;;;;5026319;28;19913;-73
2023/04/02 14:24:04;;;;;;;;;;;23.50;52.70;;;;;;5023789;28;19909;-73
2023/04/02 14:26:38;;;;;;;;;;;23.40;52.70;;;;;;5025789;28;20597;-73
2023/04/02 14:29:08;;;;;;;;;;;23.50;51.50;;;;;;5025322;28;19912;-73
2023/04/02 14:31:40;;;;;;;;;;;23.70;50.10;;;;;;4990070;28;20397;-73
2023/04/02 14:34:18;;;;;;;;;;;23.50;49.30;;;;;;5025134;28;19948;-74
2023/04/02 14:36:56;;;;;;;;;;;23.70;51.50;;;;;;5029151;28;19939;-73
2023/04/02 14:39:42;;;;;;;;;;;23.70;53.00;;;;;;5067266;28;20432;-72
2023/04/02 14:42:08;;;;;;;;;;;23.90;52.40;;;;;;4997840;28;19916;-74